Terminal Aerodrome Forecast
Issued by NWS Charleston, WV

Home | Current Version | Previous Version | Text Only | Print | Product List | Glossary On
Versions: 1 2 3 4 5 6 7 8 9 10 11 12 13 14 15 16 17 18 19 20 21 22
000
FTUS41 KRLX 120200 AAA
TAFHTS
TAF AMD
KHTS 120236Z 1203/1224 00000KT P6SM SKC
     FM120800 00000KT 6SM BR SKC
     FM121300 VRB03KT P6SM SCT250
     FM121600 21005KT P6SM FEW050 SCT120=

USA.gov is the U.S. government's official web portal to all federal, state and local government web resources and services.